Time;durP1;ratioP1;P1;durP2;ratioP2;P2;SDS_P1;SDS_P2;PMS_P1;PMS_P2;Temp;Humidity;BMP_temperature;BMP_pressure;BME280_temperature;BME280_humidity;BME280_pressure;Samples;Min_cycle;Max_cycle;Signal;HPM_P1;HPM_P2
2020/12/17 00:00:26;;;;;;;5.20;3.10;;;22.50;49.30;;;;;;5101740;28;20481;-67
2020/12/17 00:02:52;;;;;;;5.88;2.90;;;22.50;49.30;;;;;;5116301;27;20039;-67
2020/12/17 00:05:19;;;;;;;3.95;2.70;;;22.40;49.30;;;;;;5122540;27;20037;-67
2020/12/17 00:07:44;;;;;;;4.80;2.90;;;22.50;49.40;;;;;;5113945;27;20354;-67
2020/12/17 00:10:11;;;;;;;5.68;3.00;;;22.40;49.30;;;;;;5102503;27;20020;-67
2020/12/17 00:12:38;;;;;;;4.45;2.90;;;22.40;49.40;;;;;;5115372;27;20384;-67
2020/12/17 00:15:06;;;;;;;4.45;2.78;;;22.40;49.40;;;;;;5110405;27;20024;-67
2020/12/17 00:17:38;;;;;;;4.88;2.42;;;22.30;49.30;;;;;;5104850;27;20604;-67
2020/12/17 00:20:04;;;;;;;5.50;2.55;;;22.40;49.40;;;;;;5126240;27;20088;-67
2020/12/17 00:22:34;;;;;;;3.78;2.35;;;22.30;49.40;;;;;;5096433;28;20047;-67
2020/12/17 00:25:00;;;;;;;4.47;2.42;;;22.30;49.40;;;;;;5099583;27;20026;-67
2020/12/17 00:27:25;;;;;;;4.03;2.58;;;22.30;49.40;;;;;;5119242;27;20036;-68
2020/12/17 00:29:51;;;;;;;4.38;2.75;;;22.30;49.40;;;;;;5121884;27;20107;-67
2020/12/17 00:32:16;;;;;;;4.05;2.30;;;22.30;49.40;;;;;;5115312;27;20426;-67
2020/12/17 00:34:42;;;;;;;3.75;2.40;;;22.20;49.40;;;;;;5124063;27;20035;-67
2020/12/17 00:37:08;;;;;;;5.20;2.55;;;22.20;49.40;;;;;;5099420;27;20027;-67
2020/12/17 00:39:33;;;;;;;3.60;2.40;;;22.20;49.40;;;;;;5103963;27;20195;-67
2020/12/17 00:42:03;;;;;;;3.83;2.40;;;22.20;49.40;;;;;;5110056;27;20027;-67
2020/12/17 00:44:28;;;;;;;4.18;2.45;;;22.20;49.50;;;;;;5116197;27;20031;-67
2020/12/17 00:46:54;;;;;;;4.25;2.20;;;22.10;49.40;;;;;;5102511;28;20424;-68
2020/12/17 00:49:20;;;;;;;4.78;2.90;;;22.10;49.50;;;;;;5105952;27;20046;-67
2020/12/17 00:51:45;;;;;;;3.90;2.22;;;22.10;49.50;;;;;;5115725;27;20126;-67
2020/12/17 00:54:11;;;;;;;3.70;2.42;;;22.10;49.50;;;;;;5121306;28;20110;-67
2020/12/17 00:56:37;;;;;;;3.42;2.30;;;22.10;49.50;;;;;;5103920;28;20065;-67
2020/12/17 00:59:02;;;;;;;3.63;2.20;;;22.10;49.50;;;;;;5096974;28;20088;-67
2020/12/17 01:01:28;;;;;;;3.45;2.30;;;22.00;49.50;;;;;;5109492;27;20481;-67
2020/12/17 01:03:53;;;;;;;4.80;2.33;;;22.00;49.50;;;;;;5105219;28;20242;-67
2020/12/17 01:06:19;;;;;;;3.75;2.38;;;22.00;49.60;;;;;;5103770;28;20118;-67
2020/12/17 01:08:44;;;;;;;3.50;2.22;;;22.00;49.50;;;;;;5120619;28;20121;-67
2020/12/17 01:11:10;;;;;;;3.80;2.55;;;22.00;49.60;;;;;;5099846;28;20456;-67
2020/12/17 01:13:36;;;;;;;3.95;2.33;;;22.00;49.60;;;;;;5084632;28;20030;-67
2020/12/17 01:16:01;;;;;;;3.88;2.58;;;21.90;49.50;;;;;;5108766;28;20051;-68
2020/12/17 01:18:27;;;;;;;4.25;2.58;;;22.00;49.60;;;;;;5106499;27;20035;-68
2020/12/17 01:20:52;;;;;;;3.97;2.20;;;21.90;49.60;;;;;;5115833;28;20039;-68
2020/12/17 01:23:18;;;;;;;3.58;2.35;;;22.00;49.60;;;;;;5121751;28;20027;-67
2020/12/17 01:25:43;;;;;;;3.40;2.25;;;21.90;49.60;;;;;;5120647;28;20015;-67
2020/12/17 01:28:11;;;;;;;3.15;2.30;;;21.90;49.60;;;;;;5121862;27;20337;-67
2020/12/17 01:30:36;;;;;;;3.55;2.20;;;21.90;49.70;;;;;;5102974;28;20058;-68
2020/12/17 01:33:02;;;;;;;3.25;2.30;;;21.90;49.70;;;;;;5098896;28;20063;-68
2020/12/17 01:35:28;;;;;;;4.15;2.15;;;21.90;49.70;;;;;;5096302;28;20455;-67
2020/12/17 01:37:53;;;;;;;4.22;2.20;;;21.80;49.70;;;;;;5113260;28;20370;-68
2020/12/17 01:40:19;;;;;;;4.38;2.20;;;21.80;49.70;;;;;;5112834;28;20325;-68
2020/12/17 01:42:44;;;;;;;2.92;2.08;;;21.80;49.70;;;;;;5108349;28;20587;-67
2020/12/17 01:45:10;;;;;;;3.30;2.17;;;21.80;49.70;;;;;;5105151;28;20023;-68
2020/12/17 01:47:38;;;;;;;4.10;2.30;;;21.70;49.70;;;;;;5108917;27;20032;-68
2020/12/17 01:50:06;;;;;;;3.00;2.13;;;21.70;49.70;;;;;;5119681;27;20377;-68
2020/12/17 01:52:32;;;;;;;2.60;2.00;;;21.70;49.70;;;;;;5114867;27;20532;-68
2020/12/17 01:54:59;;;;;;;3.30;2.13;;;21.70;49.70;;;;;;5114057;27;20379;-68
2020/12/17 01:57:30;;;;;;;3.53;2.10;;;21.70;49.70;;;;;;5121914;27;20031;-68
2020/12/17 01:59:59;;;;;;;3.67;2.03;;;21.70;49.80;;;;;;5119990;27;20100;-68
2020/12/17 02:02:28;;;;;;;2.72;1.95;;;21.70;49.80;;;;;;5113160;27;20023;-67
2020/12/17 02:04:56;;;;;;;3.25;2.10;;;21.70;49.80;;;;;;5103165;28;20039;-68
2020/12/17 02:07:21;;;;;;;3.58;2.20;;;21.60;49.80;;;;;;5111262;27;20088;-68
2020/12/17 02:09:50;;;;;;;3.28;2.20;;;21.60;49.80;;;;;;5109883;27;20118;-68
2020/12/17 02:12:15;;;;;;;3.00;2.00;;;21.60;49.80;;;;;;5115196;27;20114;-68
2020/12/17 02:14:41;;;;;;;3.15;1.90;;;21.60;49.80;;;;;;5108475;27;20027;-68
2020/12/17 02:17:06;;;;;;;2.90;1.83;;;21.60;49.80;;;;;;5121923;27;20145;-67
2020/12/17 02:19:32;;;;;;;3.22;2.10;;;21.60;49.80;;;;;;5121153;27;20063;-67
2020/12/17 02:21:58;;;;;;;3.78;2.08;;;21.60;49.80;;;;;;5109280;27;20031;-67
2020/12/17 02:24:24;;;;;;;3.55;2.05;;;21.60;49.80;;;;;;5119725;27;20050;-67
2020/12/17 02:26:51;;;;;;;2.55;1.60;;;21.60;49.90;;;;;;5124626;27;20031;-68
2020/12/17 02:29:16;;;;;;;3.25;2.05;;;21.50;49.80;;;;;;5118898;27;20027;-67
2020/12/17 02:31:42;;;;;;;2.90;1.73;;;21.50;49.90;;;;;;5112215;27;20130;-67
2020/12/17 02:34:08;;;;;;;3.40;1.90;;;21.50;49.90;;;;;;5116878;27;20054;-67
2020/12/17 02:36:34;;;;;;;3.55;1.95;;;21.50;49.90;;;;;;5121138;27;20110;-67
2020/12/17 02:39:00;;;;;;;2.85;1.90;;;21.50;49.90;;;;;;5105020;27;20030;-67
2020/12/17 02:41:26;;;;;;;3.42;2.10;;;21.50;49.90;;;;;;5098502;27;20035;-67
2020/12/17 02:43:52;;;;;;;3.90;1.95;;;21.50;49.90;;;;;;5112696;27;20466;-67
2020/12/17 02:46:19;;;;;;;3.05;1.98;;;21.50;49.90;;;;;;5120232;27;20077;-67
2020/12/17 02:48:49;;;;;;;2.78;1.80;;;21.50;49.90;;;;;;5097023;28;20035;-67
2020/12/17 02:51:15;;;;;;;3.15;1.90;;;21.40;49.90;;;;;;5113929;27;20388;-67
2020/12/17 02:53:40;;;;;;;2.90;1.95;;;21.40;49.90;;;;;;5101054;27;20046;-67
2020/12/17 02:56:06;;;;;;;2.83;1.73;;;21.40;49.90;;;;;;5122317;27;20024;-67
2020/12/17 02:58:31;;;;;;;3.20;1.80;;;21.40;49.90;;;;;;5122633;27;20039;-67
2020/12/17 03:00:57;;;;;;;2.85;1.83;;;21.40;49.90;;;;;;5097793;27;20083;-67
2020/12/17 03:03:23;;;;;;;2.47;1.60;;;21.40;49.90;;;;;;5127478;27;20023;-67
2020/12/17 03:05:49;;;;;;;2.55;1.65;;;21.40;49.90;;;;;;5100798;27;20113;-67
2020/12/17 03:08:15;;;;;;;2.53;1.73;;;21.40;49.90;;;;;;5126650;27;20038;-67
2020/12/17 03:10:40;;;;;;;2.75;1.80;;;21.40;50.00;;;;;;5115864;27;20374;-67
2020/12/17 03:13:06;;;;;;;2.70;1.65;;;21.30;50.00;;;;;;5106220;27;20023;-67
2020/12/17 03:15:31;;;;;;;2.58;1.70;;;21.40;50.00;;;;;;5119686;27;20027;-68
2020/12/17 03:17:57;;;;;;;2.83;1.85;;;21.40;50.00;;;;;;5089968;28;20044;-67
2020/12/17 03:20:23;;;;;;;2.80;1.90;;;21.30;50.00;;;;;;5110965;27;20297;-68
2020/12/17 03:22:48;;;;;;;3.28;1.70;;;21.30;50.00;;;;;;5110841;27;20454;-67
2020/12/17 03:25:14;;;;;;;3.33;1.85;;;21.30;50.00;;;;;;5116147;27;20419;-67
2020/12/17 03:27:40;;;;;;;2.28;1.65;;;21.30;50.00;;;;;;5123999;27;20139;-67
2020/12/17 03:30:06;;;;;;;2.38;1.52;;;21.30;50.00;;;;;;5105449;27;20038;-67
2020/12/17 03:32:33;;;;;;;2.58;1.77;;;21.30;50.00;;;;;;5113528;27;20035;-68
2020/12/17 03:34:58;;;;;;;2.70;1.75;;;21.30;50.10;;;;;;5106503;27;20030;-67
2020/12/17 03:37:24;;;;;;;3.13;1.70;;;21.20;50.00;;;;;;5111256;27;20027;-67
2020/12/17 03:39:49;;;;;;;3.17;1.63;;;21.30;50.10;;;;;;5096965;27;20064;-67
2020/12/17 03:42:17;;;;;;;2.50;1.75;;;21.20;50.10;;;;;;5095447;27;20030;-67
2020/12/17 03:44:43;;;;;;;3.05;1.75;;;21.20;50.10;;;;;;5120066;27;20123;-67
2020/12/17 03:47:08;;;;;;;2.72;1.60;;;21.20;50.00;;;;;;5103189;27;20123;-67
2020/12/17 03:49:34;;;;;;;2.83;1.88;;;21.20;50.10;;;;;;5113344;27;20482;-68
2020/12/17 03:51:59;;;;;;;2.50;1.65;;;21.30;50.10;;;;;;5116211;27;20151;-67
2020/12/17 03:54:25;;;;;;;2.50;1.65;;;21.20;50.10;;;;;;5119695;27;20043;-67
2020/12/17 03:56:50;;;;;;;2.70;1.75;;;21.20;50.10;;;;;;5121505;27;20626;-67
2020/12/17 03:59:16;;;;;;;2.67;1.60;;;21.20;50.10;;;;;;5125650;27;20034;-68
2020/12/17 04:01:42;;;;;;;2.58;1.60;;;21.20;50.10;;;;;;5118914;27;20035;-67
2020/12/17 04:04:07;;;;;;;2.53;1.60;;;21.20;50.20;;;;;;5108943;27;20023;-67
2020/12/17 04:06:33;;;;;;;3.03;1.70;;;21.10;50.10;;;;;;5112801;27;20458;-67
2020/12/17 04:08:58;;;;;;;2.95;1.77;;;21.10;50.10;;;;;;5120817;27;20043;-67
2020/12/17 04:11:24;;;;;;;3.13;1.70;;;21.20;50.20;;;;;;5097568;27;20441;-67
2020/12/17 04:13:50;;;;;;;2.47;1.50;;;21.20;50.20;;;;;;5117151;27;20154;-67
2020/12/17 04:16:15;;;;;;;2.83;1.58;;;21.10;50.20;;;;;;5110745;27;20107;-67
2020/12/17 04:18:41;;;;;;;2.65;1.60;;;21.10;50.20;;;;;;5116724;27;20126;-67
2020/12/17 04:21:06;;;;;;;2.30;1.63;;;21.10;50.20;;;;;;5118849;27;20046;-67
2020/12/17 04:23:32;;;;;;;2.58;1.60;;;21.10;50.20;;;;;;5118257;27;20150;-68
2020/12/17 04:25:59;;;;;;;2.88;1.70;;;21.10;50.20;;;;;;5109908;27;20419;-67
2020/12/17 04:28:25;;;;;;;3.33;1.60;;;21.10;50.20;;;;;;5105072;27;20030;-67
2020/12/17 04:30:51;;;;;;;2.40;1.60;;;21.10;50.20;;;;;;5115923;27;20032;-67
2020/12/17 04:33:16;;;;;;;2.25;1.52;;;21.10;50.30;;;;;;5115119;27;20098;-67
2020/12/17 04:35:42;;;;;;;2.40;1.70;;;21.00;50.20;;;;;;5102232;27;20253;-67
2020/12/17 04:38:08;;;;;;;2.40;1.50;;;21.00;50.20;;;;;;5118143;27;20028;-68
2020/12/17 04:40:34;;;;;;;2.60;1.70;;;21.10;50.30;;;;;;5121257;27;20041;-68
2020/12/17 04:43:00;;;;;;;2.58;1.50;;;21.10;50.30;;;;;;5100432;27;20110;-67
2020/12/17 04:45:26;;;;;;;2.25;1.35;;;21.00;50.20;;;;;;5112242;27;20672;-68
2020/12/17 04:47:57;;;;;;;2.47;1.65;;;21.10;50.30;;;;;;5113930;27;20023;-68
2020/12/17 04:50:26;;;;;;;2.25;1.42;;;21.10;50.30;;;;;;5111538;28;20027;-68
2020/12/17 04:52:52;;;;;;;2.10;1.50;;;21.00;50.30;;;;;;5117243;28;20118;-68
2020/12/17 04:55:19;;;;;;;2.08;1.38;;;21.00;50.30;;;;;;5111244;28;20050;-68
2020/12/17 04:57:46;;;;;;;2.35;1.60;;;21.00;50.30;;;;;;5117053;27;20035;-68
2020/12/17 05:00:13;;;;;;;1.95;1.40;;;21.00;50.30;;;;;;5113613;27;20034;-68
2020/12/17 05:02:43;;;;;;;2.20;1.40;;;21.00;50.30;;;;;;5087474;28;20145;-68
2020/12/17 05:05:09;;;;;;;2.08;1.45;;;21.00;50.30;;;;;;5110134;27;20165;-68
2020/12/17 05:07:36;;;;;;;2.17;1.40;;;21.00;50.20;;;;;;5106604;28;20157;-68
2020/12/17 05:10:03;;;;;;;2.58;1.58;;;21.00;50.20;;;;;;5121666;27;20022;-68
2020/12/17 05:12:29;;;;;;;2.03;1.40;;;21.00;50.20;;;;;;5103469;28;20035;-68
2020/12/17 05:14:55;;;;;;;2.60;1.40;;;21.00;50.20;;;;;;5122604;27;20039;-68
2020/12/17 05:17:21;;;;;;;1.90;1.40;;;21.00;50.20;;;;;;5118760;28;20027;-68
2020/12/17 05:19:47;;;;;;;2.40;1.60;;;21.00;50.20;;;;;;5122204;27;20473;-68
2020/12/17 05:22:14;;;;;;;2.22;1.50;;;21.00;50.20;;;;;;5124529;27;20029;-68
2020/12/17 05:24:42;;;;;;;1.70;1.20;;;20.90;50.20;;;;;;5115277;27;20044;-68
2020/12/17 05:27:09;;;;;;;1.92;1.30;;;21.00;50.20;;;;;;5119829;27;20107;-68
2020/12/17 05:29:37;;;;;;;2.72;1.30;;;21.00;50.20;;;;;;5120200;27;20015;-68
2020/12/17 05:32:03;;;;;;;1.73;1.33;;;21.00;50.30;;;;;;5099257;27;20533;-68
2020/12/17 05:34:29;;;;;;;1.85;1.35;;;21.00;50.20;;;;;;5101197;27;20035;-68
2020/12/17 05:36:54;;;;;;;2.10;1.48;;;20.90;50.20;;;;;;5117515;27;20035;-68
2020/12/17 05:39:22;;;;;;;1.85;1.33;;;21.00;50.20;;;;;;5118275;27;20107;-68
2020/12/17 05:41:50;;;;;;;1.73;1.33;;;21.00;50.20;;;;;;5118320;27;20039;-68
2020/12/17 05:44:20;;;;;;;2.28;1.33;;;21.00;50.20;;;;;;5120866;27;20028;-68
2020/12/17 05:46:48;;;;;;;2.63;1.40;;;21.00;50.30;;;;;;5118120;27;20035;-68
2020/12/17 05:49:18;;;;;;;2.30;1.40;;;21.00;50.20;;;;;;5117978;27;20116;-68
2020/12/17 05:51:45;;;;;;;2.20;1.40;;;21.00;50.20;;;;;;5118132;27;20511;-68
2020/12/17 05:54:30;;;;;;;1.80;1.38;;;21.00;50.20;;;;;;5116149;27;20023;-68
2020/12/17 05:57:09;;;;;;;1.80;1.30;;;21.00;50.20;;;;;;5119593;27;20124;-68
2020/12/17 05:59:35;;;;;;;1.60;1.20;;;21.00;50.10;;;;;;5127445;27;20023;-68
2020/12/17 06:02:18;;;;;;;1.95;1.40;;;21.00;50.20;;;;;;5113733;27;20628;-68
2020/12/17 06:04:44;;;;;;;2.35;1.30;;;21.00;50.20;;;;;;5123070;27;20023;-67
2020/12/17 06:07:14;;;;;;;2.00;1.40;;;20.90;50.20;;;;;;5121618;27;20060;-67
2020/12/17 06:09:46;;;;;;;1.98;1.30;;;20.90;50.20;;;;;;5123385;27;20032;-66
2020/12/17 06:12:18;;;;;;;2.00;1.17;;;20.90;50.20;;;;;;5100195;28;20323;-68
2020/12/17 06:14:46;;;;;;;1.70;1.20;;;20.90;50.10;;;;;;5104452;27;20031;-67
2020/12/17 06:17:17;;;;;;;1.75;1.10;;;20.90;50.20;;;;;;5117092;27;20042;-67
2020/12/17 06:19:46;;;;;;;2.42;1.23;;;20.90;50.10;;;;;;5116192;27;20032;-67
2020/12/17 06:22:12;;;;;;;2.72;1.10;;;20.90;50.20;;;;;;5117326;27;20022;-68
2020/12/17 06:24:40;;;;;;;2.03;1.50;;;20.90;50.10;;;;;;5114288;27;20026;-67
2020/12/17 06:27:09;;;;;;;2.72;1.90;;;20.90;50.50;;;;;;5123654;27;20023;-66
2020/12/17 06:29:48;;;;;;;2.58;1.90;;;21.00;51.00;;;;;;5119482;27;20027;-66
2020/12/17 06:32:16;;;;;;;2.33;1.77;;;21.30;50.90;;;;;;5108685;27;20028;-68
2020/12/17 06:34:46;;;;;;;2.63;1.50;;;21.50;50.70;;;;;;5108857;27;20032;-68
2020/12/17 06:37:15;;;;;;;2.40;1.52;;;21.70;50.40;;;;;;5092658;27;20370;-68
2020/12/17 06:39:48;;;;;;;2.38;1.60;;;21.90;50.30;;;;;;5126004;27;20076;-66
2020/12/17 06:42:34;;;;;;;3.70;1.50;;;22.10;50.20;;;;;;5103188;27;20059;-69
2020/12/17 06:45:00;;;;;;;2.38;1.50;;;22.30;50.00;;;;;;5132705;27;20109;-68
2020/12/17 06:47:29;;;;;;;1.95;1.50;;;22.50;50.00;;;;;;5120858;27;20447;-68
2020/12/17 06:50:27;;;;;;;2.30;1.52;;;22.60;49.80;;;;;;5096373;28;20024;-67
2020/12/17 06:53:19;;;;;;;2.25;1.45;;;22.80;49.70;;;;;;5104405;27;20027;-70
2020/12/17 06:55:50;;;;;;;1.65;1.30;;;23.00;49.50;;;;;;5087929;28;20056;-69
2020/12/17 06:58:19;;;;;;;1.80;1.10;;;23.10;49.30;;;;;;5106680;27;20019;-68
2020/12/17 07:00:47;;;;;;;1.77;1.20;;;23.30;49.30;;;;;;5113516;27;20030;-69
2020/12/17 07:03:48;;;;;;;1.85;1.30;;;23.50;49.00;;;;;;5098853;27;20023;-69
2020/12/17 07:06:21;;;;;;;1.88;1.25;;;23.60;48.80;;;;;;5089988;28;20099;-68
2020/12/17 07:08:50;;;;;;;2.05;1.20;;;23.70;48.60;;;;;;5119801;27;20019;-67
2020/12/17 07:11:36;;;;;;;1.83;1.20;;;23.80;48.80;;;;;;5099095;28;20081;-69
2020/12/17 07:14:04;;;;;;;2.00;1.20;;;23.90;48.80;;;;;;5119495;27;20069;-68
2020/12/17 07:16:32;;;;;;;1.40;1.10;;;24.10;49.00;;;;;;5122332;27;20046;-68
2020/12/17 07:19:26;;;;;;;1.13;1.00;;;24.20;48.50;;;;;;5111983;27;20035;-68
2020/12/17 07:22:11;;;;;;;2.17;1.02;;;24.40;48.30;;;;;;5113623;27;20035;-68
2020/12/17 07:24:39;;;;;;;1.42;1.00;;;24.70;48.00;;;;;;5106307;27;20103;-67
2020/12/17 07:27:11;;;;;;;1.15;0.95;;;24.90;47.70;;;;;;5101912;27;20107;-67
2020/12/17 07:29:44;;;;;;;2.42;1.10;;;25.10;47.60;;;;;;5117712;27;20045;-67
2020/12/17 07:32:22;;;;;;;1.25;1.00;;;25.20;47.50;;;;;;5095894;28;20036;-67
2020/12/17 07:34:49;;;;;;;1.00;0.73;;;25.40;47.30;;;;;;5109218;28;20463;-67
2020/12/17 07:37:48;;;;;;;1.33;0.80;;;25.40;47.20;;;;;;5096018;28;20031;-68
2020/12/17 07:40:17;;;;;;;0.63;0.60;;;25.20;47.30;;;;;;5112268;27;20147;-69
2020/12/17 07:42:54;;;;;;;1.13;0.80;;;25.10;47.70;;;;;;5111354;27;20028;-68
2020/12/17 07:45:39;;;;;;;1.08;0.93;;;25.00;47.90;;;;;;5129638;27;20034;-70
2020/12/17 07:48:43;;;;;;;1.35;1.05;;;25.00;48.50;;;;;;5129111;27;20082;-66
2020/12/17 07:51:14;;;;;;;1.23;0.90;;;25.20;48.20;;;;;;5115000;27;20622;-67
2020/12/17 07:53:47;;;;;;;1.67;0.80;;;25.40;47.80;;;;;;5115272;27;20085;-67
2020/12/17 07:56:13;;;;;;;1.13;0.80;;;25.30;47.90;;;;;;5110709;27;20554;-68
2020/12/17 07:58:41;;;;;;;1.52;0.90;;;25.20;48.00;;;;;;5120812;27;20035;-68
2020/12/17 08:01:08;;;;;;;0.82;0.70;;;25.20;48.20;;;;;;5120875;27;20389;-67
2020/12/17 08:03:49;;;;;;;0.93;0.70;;;25.10;48.30;;;;;;5116113;27;20122;-70
2020/12/17 08:06:17;;;;;;;0.95;0.70;;;25.10;48.40;;;;;;5124212;27;20054;-67
2020/12/17 08:08:43;;;;;;;1.00;0.80;;;25.00;48.40;;;;;;5123835;27;20068;-67
2020/12/17 08:11:10;;;;;;;1.17;0.82;;;25.00;49.00;;;;;;5121665;27;20039;-67
2020/12/17 08:13:36;;;;;;;4.82;4.07;;;25.20;48.70;;;;;;5115139;27;20031;-67
2020/12/17 08:16:06;;;;;;;4.53;4.10;;;24.90;34.90;;;;;;5101385;27;20023;-67
2020/12/17 08:18:33;;;;;;;5.97;4.38;;;24.30;34.00;;;;;;5128088;27;20459;-67
2020/12/17 08:21:10;;;;;;;4.45;3.35;;;23.90;36.00;;;;;;5130568;27;20146;-67
2020/12/17 08:23:41;;;;;;;3.40;2.58;;;23.80;37.80;;;;;;5112239;27;20474;-66
2020/12/17 08:26:10;;;;;;;3.22;2.40;;;23.90;39.40;;;;;;5117742;27;20058;-67
2020/12/17 08:28:37;;;;;;;3.55;2.53;;;24.00;40.30;;;;;;5100887;27;20028;-65
2020/12/17 08:31:05;;;;;;;3.00;2.33;;;24.10;41.00;;;;;;5112435;27;20061;-66
2020/12/17 08:33:33;;;;;;;3.30;2.50;;;24.10;41.70;;;;;;5095165;27;20041;-66
2020/12/17 08:36:10;;;;;;;2.75;2.10;;;24.20;42.20;;;;;;5118683;27;20114;-68
2020/12/17 08:38:36;;;;;;;2.72;2.03;;;24.30;42.90;;;;;;5107173;27;20496;-66
2020/12/17 08:41:05;;;;;;;2.92;2.00;;;24.30;43.40;;;;;;5133003;27;20079;-66
2020/12/17 08:43:43;;;;;;;2.47;1.90;;;24.30;43.90;;;;;;5117493;27;20024;-68
2020/12/17 08:46:16;;;;;;;2.60;1.90;;;24.30;44.00;;;;;;5126112;27;20051;-66
2020/12/17 08:48:46;;;;;;;2.85;2.00;;;24.40;44.30;;;;;;5120824;27;20034;-66
2020/12/17 08:51:16;;;;;;;3.45;1.80;;;24.30;44.50;;;;;;5116822;27;20627;-66
2020/12/17 08:53:44;;;;;;;2.80;2.00;;;24.40;45.30;;;;;;5107543;28;20032;-67
2020/12/17 08:56:12;;;;;;;4.32;2.90;;;24.40;46.10;;;;;;5111406;28;20085;-66
2020/12/17 08:58:50;;;;;;;4.57;3.20;;;24.40;40.80;;;;;;5115588;27;20492;-66
2020/12/17 09:01:33;;;;;;;3.70;2.60;;;24.20;40.70;;;;;;5130422;27;20483;-67
2020/12/17 09:04:04;;;;;;;2.67;2.13;;;24.20;41.60;;;;;;5118277;27;20031;-66
2020/12/17 09:06:31;;;;;;;3.05;2.00;;;24.20;42.40;;;;;;5137382;27;20108;-67
2020/12/17 09:09:18;;;;;;;2.80;1.85;;;24.20;42.90;;;;;;5110764;27;20092;-65
2020/12/17 09:11:46;;;;;;;3.15;1.95;;;24.20;43.30;;;;;;5113332;27;20373;-66
2020/12/17 09:14:12;;;;;;;2.45;1.90;;;24.20;43.70;;;;;;5098889;28;20415;-68
2020/12/17 09:16:40;;;;;;;2.88;2.10;;;24.20;44.30;;;;;;5121562;27;20025;-67
2020/12/17 09:19:08;;;;;;;3.88;1.83;;;24.20;44.80;;;;;;5114602;27;20252;-66
2020/12/17 09:21:58;;;;;;;2.92;1.98;;;24.30;45.70;;;;;;5128955;27;20501;-65
2020/12/17 09:24:31;;;;;;;2.80;2.00;;;24.30;45.60;;;;;;5109325;27;20084;-67
2020/12/17 09:27:13;;;;;;;2.40;1.60;;;24.30;46.30;;;;;;5119525;27;20031;-67
2020/12/17 09:29:38;;;;;;;3.60;1.77;;;24.30;46.50;;;;;;5107882;27;20023;-67
2020/12/17 09:32:16;;;;;;;2.53;1.75;;;24.40;47.00;;;;;;5118170;27;20466;-67
2020/12/17 09:34:42;;;;;;;3.50;2.40;;;24.40;48.10;;;;;;5120519;27;20027;-65
2020/12/17 09:37:11;;;;;;;3.03;2.47;;;24.40;42.20;;;;;;5113792;27;20058;-66
2020/12/17 09:39:44;;;;;;;2.70;2.17;;;24.20;39.20;;;;;;5119308;28;20039;-67
2020/12/17 09:42:16;;;;;;;2.85;2.30;;;23.80;36.20;;;;;;5128921;27;20035;-64
2020/12/17 09:44:41;;;;;;;3.10;2.45;;;23.60;36.30;;;;;;5114027;27;20045;-65
2020/12/17 09:47:07;;;;;;;3.35;2.33;;;23.30;36.10;;;;;;5128795;27;20101;-65
2020/12/17 09:49:35;;;;;;;3.20;2.50;;;23.00;35.20;;;;;;5139729;27;20035;-65
2020/12/17 09:52:09;;;;;;;4.22;2.50;;;23.00;35.40;;;;;;5121697;27;20031;-65
2020/12/17 09:54:43;;;;;;;3.40;2.75;;;22.80;35.40;;;;;;5127338;27;20234;-64
2020/12/17 09:57:14;;;;;;;4.20;3.50;;;22.70;35.30;;;;;;5125814;27;20038;-68
2020/12/17 09:59:42;;;;;;;5.05;3.45;;;22.60;35.50;;;;;;5119366;27;20027;-65
2020/12/17 10:02:13;;;;;;;4.15;3.17;;;22.40;35.60;;;;;;5097564;27;20035;-66
2020/12/17 10:04:40;;;;;;;3.50;3.15;;;22.20;35.40;;;;;;5099399;28;20082;-66
2020/12/17 10:07:08;;;;;;;3.95;3.53;;;22.10;35.80;;;;;;5100531;27;20029;-66
2020/12/17 10:09:34;;;;;;;3.42;2.95;;;22.10;36.40;;;;;;5127166;27;20026;-65
2020/12/17 10:11:59;;;;;;;3.78;3.00;;;22.00;35.90;;;;;;5127659;27;20066;-67
2020/12/17 10:14:27;;;;;;;3.55;2.97;;;21.90;36.00;;;;;;5131124;27;20361;-67
2020/12/17 10:17:00;;;;;;;3.67;2.85;;;21.70;36.20;;;;;;5103878;27;20083;-67
2020/12/17 10:19:27;;;;;;;4.68;3.95;;;21.70;36.10;;;;;;5101405;27;20054;-66
2020/12/17 10:21:54;;;;;;;4.80;4.00;;;21.60;36.30;;;;;;5119152;27;20065;-65
2020/12/17 10:24:19;;;;;;;4.15;3.33;;;21.50;36.00;;;;;;5123765;27;20145;-65
2020/12/17 10:26:45;;;;;;;3.72;3.10;;;21.40;36.50;;;;;;5117619;27;20067;-65
2020/12/17 10:29:10;;;;;;;4.00;3.30;;;21.30;36.50;;;;;;5123262;27;20051;-67
2020/12/17 10:31:36;;;;;;;4.40;3.40;;;21.20;36.40;;;;;;5110932;27;20031;-66
2020/12/17 10:34:03;;;;;;;3.22;2.35;;;21.20;36.90;;;;;;5115475;27;20023;-66
2020/12/17 10:36:28;;;;;;;3.00;1.95;;;21.20;38.50;;;;;;5112071;27;20032;-66
2020/12/17 10:38:54;;;;;;;2.80;1.80;;;21.40;39.30;;;;;;5101005;27;20484;-67
2020/12/17 10:41:27;;;;;;;2.60;1.60;;;21.60;39.80;;;;;;5121627;27;20473;-66
2020/12/17 10:43:53;;;;;;;2.10;1.23;;;21.70;40.10;;;;;;5115049;27;20054;-68
2020/12/17 10:46:19;;;;;;;2.03;1.40;;;21.90;40.40;;;;;;5113591;27;20451;-68
2020/12/17 10:48:45;;;;;;;2.42;1.48;;;22.00;40.70;;;;;;5113679;27;20019;-64
2020/12/17 10:51:17;;;;;;;2.33;1.52;;;22.10;41.00;;;;;;5115355;27;20045;-66
2020/12/17 10:53:44;;;;;;;2.90;1.80;;;22.10;42.10;;;;;;5115809;27;20023;-65
2020/12/17 10:56:10;;;;;;;6.18;2.80;;;22.10;42.80;;;;;;5122532;27;20157;-66
2020/12/17 10:58:37;;;;;;;4.55;3.00;;;22.10;43.30;;;;;;5096241;27;20027;-66
2020/12/17 11:01:03;;;;;;;4.47;3.00;;;22.10;44.00;;;;;;5125692;27;20354;-65
2020/12/17 11:03:29;;;;;;;5.30;2.70;;;22.10;43.70;;;;;;5124501;27;20042;-65
2020/12/17 11:05:56;;;;;;;3.55;2.50;;;22.10;43.80;;;;;;5128690;27;20059;-67
2020/12/17 11:08:23;;;;;;;4.30;2.75;;;22.20;43.90;;;;;;5120443;27;20015;-66
2020/12/17 11:10:49;;;;;;;3.85;2.60;;;22.20;44.00;;;;;;5125951;27;20043;-66
2020/12/17 11:13:15;;;;;;;4.45;2.47;;;22.30;44.20;;;;;;5117689;27;20167;-66
2020/12/17 11:15:41;;;;;;;5.00;2.70;;;22.30;44.40;;;;;;5113260;27;20213;-66
2020/12/17 11:18:06;;;;;;;3.40;2.40;;;22.30;44.50;;;;;;5124186;27;20054;-66
2020/12/17 11:20:32;;;;;;;3.75;2.20;;;22.30;44.70;;;;;;5132739;27;20038;-66
2020/12/17 11:22:57;;;;;;;4.13;2.33;;;22.40;44.80;;;;;;5126874;27;20034;-67
2020/12/17 11:25:23;;;;;;;5.05;2.45;;;22.50;44.90;;;;;;5130861;27;20106;-66
2020/12/17 11:27:50;;;;;;;3.35;2.22;;;22.50;45.10;;;;;;5118851;27;20344;-67
2020/12/17 11:30:15;;;;;;;4.30;2.30;;;22.50;45.20;;;;;;5126291;27;20024;-65
2020/12/17 11:32:41;;;;;;;3.88;2.40;;;22.50;45.30;;;;;;5133177;27;20038;-66
2020/12/17 11:35:07;;;;;;;4.07;2.50;;;22.60;45.40;;;;;;5126548;27;20062;-66
2020/12/17 11:37:38;;;;;;;3.25;2.35;;;22.60;46.00;;;;;;5132645;27;20031;-65
2020/12/17 11:40:03;;;;;;;6.03;2.10;;;22.70;45.70;;;;;;5122744;27;20035;-66
2020/12/17 11:42:29;;;;;;;3.10;2.05;;;22.70;45.70;;;;;;5116189;27;20141;-66
2020/12/17 11:44:54;;;;;;;3.85;2.20;;;22.70;46.20;;;;;;5117883;27;20016;-66
2020/12/17 11:47:20;;;;;;;4.15;2.25;;;22.70;46.20;;;;;;5122946;27;20104;-67
2020/12/17 11:49:46;;;;;;;3.67;2.35;;;22.80;46.70;;;;;;5124000;27;20031;-66
2020/12/17 11:52:12;;;;;;;3.60;2.10;;;22.80;47.50;;;;;;5101763;27;20030;-67
2020/12/17 11:54:37;;;;;;;5.05;2.15;;;22.80;46.60;;;;;;5125507;27;20339;-67
2020/12/17 11:57:03;;;;;;;3.75;2.15;;;22.90;46.40;;;;;;5128095;27;20065;-66
2020/12/17 11:59:29;;;;;;;3.70;2.10;;;22.90;46.70;;;;;;5105199;27;20050;-66
2020/12/17 12:01:56;;;;;;;2.72;1.90;;;22.90;46.60;;;;;;5111206;27;20027;-66
2020/12/17 12:04:22;;;;;;;3.40;2.10;;;22.90;46.50;;;;;;5140936;27;20145;-67
2020/12/17 12:06:49;;;;;;;2.70;1.80;;;23.00;47.00;;;;;;5127145;27;20035;-65
2020/12/17 12:09:18;;;;;;;2.90;1.80;;;23.00;46.60;;;;;;5126698;27;20012;-66
2020/12/17 12:11:45;;;;;;;2.90;1.90;;;23.00;46.70;;;;;;5108316;27;20027;-65
2020/12/17 12:14:11;;;;;;;4.15;2.13;;;23.00;46.60;;;;;;5125512;27;20042;-66
2020/12/17 12:16:37;;;;;;;3.72;1.90;;;23.00;47.10;;;;;;5130839;27;20031;-67
2020/12/17 12:19:02;;;;;;;4.50;1.90;;;23.10;47.00;;;;;;5130147;27;20457;-67
2020/12/17 12:21:28;;;;;;;4.28;1.90;;;23.10;47.10;;;;;;5128347;27;20161;-67
2020/12/17 12:23:53;;;;;;;2.95;1.80;;;23.10;47.00;;;;;;5123425;27;20026;-66
2020/12/17 12:26:19;;;;;;;4.68;1.90;;;23.10;47.30;;;;;;5111012;27;20091;-66
2020/12/17 12:28:45;;;;;;;3.00;1.90;;;23.10;47.20;;;;;;5112007;27;20043;-66
2020/12/17 12:31:14;;;;;;;3.03;2.10;;;23.10;47.00;;;;;;5108287;27;20081;-66
2020/12/17 12:33:45;;;;;;;3.08;1.70;;;23.20;47.10;;;;;;5119511;27;20038;-67
2020/12/17 12:36:12;;;;;;;3.08;1.83;;;23.20;47.20;;;;;;5119651;27;20039;-68
2020/12/17 12:38:38;;;;;;;2.72;1.77;;;23.20;47.50;;;;;;5118438;27;20473;-67
2020/12/17 12:41:05;;;;;;;3.38;1.70;;;23.30;48.10;;;;;;5124333;27;20442;-65
2020/12/17 12:43:30;;;;;;;2.92;1.70;;;23.30;47.60;;;;;;5116361;27;20031;-66
2020/12/17 12:45:57;;;;;;;3.08;1.73;;;23.30;47.60;;;;;;5120193;27;20070;-66
2020/12/17 12:48:23;;;;;;;3.05;1.92;;;23.30;47.70;;;;;;5126451;27;20102;-66
2020/12/17 12:50:50;;;;;;;2.75;1.80;;;23.40;47.90;;;;;;5119565;27;20103;-67
2020/12/17 12:53:16;;;;;;;2.40;1.52;;;23.40;48.00;;;;;;5090826;28;20016;-67